Time;durP1;ratioP1;P1;durP2;ratioP2;P2;SDS_P1;SDS_P2;PMS_P1;PMS_P2;Temp;Humidity;BMP_temperature;BMP_pressure;BME280_temperature;BME280_humidity;BME280_pressure;Samples;Min_cycle;Max_cycle;Signal;HPM_P1;HPM_P2
2021/07/14 00:01:21;;;;;;;2.92;1.55;;;;;;;;;;4933235;29;20046;-48
2021/07/14 00:03:48;;;;;;;3.38;1.60;;;;;;;;;;4935528;29;20054;-48
2021/07/14 00:06:53;;;;;;;3.78;1.70;;;;;;;;;;4917142;29;20044;-48
2021/07/14 00:09:24;;;;;;;3.05;1.63;;;;;;;;;;4920466;29;20464;-46
2021/07/14 00:12:00;;;;;;;4.63;1.73;;;;;;;;;;4934017;29;20044;-47
2021/07/14 00:22:38;;;;;;;4.80;1.95;;;;;;;;;;4929155;29;20378;-46
2021/07/14 00:25:06;;;;;;;5.15;1.52;;;;;;;;;;4902894;29;20136;-45
2021/07/14 00:27:39;;;;;;;2.50;1.52;;;;;;;;;;4908492;29;20127;-48
2021/07/14 00:30:09;;;;;;;21.80;2.07;;;;;;;;;;4895996;29;20052;-48
2021/07/14 00:32:36;;;;;;;2.47;1.33;;;;;;;;;;4922083;29;20539;-47
2021/07/14 00:35:14;;;;;;;3.03;1.52;;;;;;;;;;4934823;29;20643;-50
2021/07/14 00:37:40;;;;;;;1.77;1.20;;;;;;;;;;4932262;29;20047;-46
2021/07/14 00:40:10;;;;;;;2.30;1.20;;;;;;;;;;4906187;29;20094;-50
2021/07/14 00:42:37;;;;;;;3.28;1.55;;;;;;;;;;4933364;29;20476;-45
2021/07/14 00:45:04;;;;;;;2.33;1.77;;;;;;;;;;4933426;29;20126;-45
2021/07/14 00:47:33;;;;;;;2.40;1.67;;;;;;;;;;4917194;29;20130;-46
2021/07/14 00:50:00;;;;;;;2.33;1.50;;;;;;;;;;4914459;29;20135;-46
2021/07/14 00:52:31;;;;;;;5.85;2.75;;;;;;;;;;4922279;29;20060;-46
2021/07/14 00:54:58;;;;;;;2.58;1.67;;;;;;;;;;4931998;29;20632;-46
2021/07/14 00:57:28;;;;;;;2.40;1.50;;;;;;;;;;4915442;29;20046;-46
2021/07/14 00:59:54;;;;;;;2.92;1.63;;;;;;;;;;4916901;29;20075;-49
2021/07/14 01:02:21;;;;;;;2.47;1.88;;;;;;;;;;4926483;29;20547;-45
2021/07/14 01:04:55;;;;;;;2.72;1.77;;;;;;;;;;4932859;29;20059;-45
2021/07/14 01:07:35;;;;;;;4.65;1.98;;;;;;;;;;4921224;29;20048;-45
2021/07/14 01:10:06;;;;;;;2.55;1.75;;;;;;;;;;4931662;29;20048;-45
2021/07/14 01:12:36;;;;;;;1.75;1.50;;;;;;;;;;4933458;29;20130;-51
2021/07/14 01:15:08;;;;;;;3.30;1.75;;;;;;;;;;4934638;29;20051;-45
2021/07/14 01:17:38;;;;;;;2.45;1.48;;;;;;;;;;4924681;29;20052;-50
2021/07/14 01:20:14;;;;;;;3.78;1.67;;;;;;;;;;4932133;29;20457;-45
2021/07/14 01:22:41;;;;;;;2.45;1.70;;;;;;;;;;4932831;29;20127;-50
2021/07/14 01:25:10;;;;;;;3.47;1.50;;;;;;;;;;4909988;29;20509;-47
2021/07/14 01:27:38;;;;;;;4.13;1.60;;;;;;;;;;4896708;29;20543;-49
2021/07/14 01:30:06;;;;;;;4.97;1.73;;;;;;;;;;4920834;29;20054;-44
2021/07/14 01:32:35;;;;;;;2.35;1.38;;;;;;;;;;4930709;29;20135;-45
2021/07/14 01:35:08;;;;;;;6.43;1.80;;;;;;;;;;4933499;29;20048;-48
2021/07/14 01:37:35;;;;;;;2.97;1.83;;;;;;;;;;4932546;29;20130;-47
2021/07/14 01:40:04;;;;;;;2.22;1.50;;;;;;;;;;4901628;29;20045;-51
2021/07/14 01:42:31;;;;;;;2.63;1.80;;;;;;;;;;4917074;29;20056;-49
2021/07/14 01:44:58;;;;;;;2.63;1.60;;;;;;;;;;4934455;29;20106;-45
2021/07/14 01:47:26;;;;;;;3.80;1.85;;;;;;;;;;4912311;29;20510;-46
2021/07/14 01:49:56;;;;;;;4.57;1.95;;;;;;;;;;4896252;29;20075;-44
2021/07/14 01:52:24;;;;;;;3.45;1.80;;;;;;;;;;4908004;29;20138;-49
2021/07/14 01:54:52;;;;;;;2.45;1.63;;;;;;;;;;4915217;29;20442;-50
2021/07/14 01:57:21;;;;;;;5.75;1.98;;;;;;;;;;4921544;29;20043;-48
2021/07/14 01:59:48;;;;;;;3.45;1.88;;;;;;;;;;4913353;29;20146;-47
2021/07/14 02:02:18;;;;;;;3.58;1.90;;;;;;;;;;4931468;29;20044;-50
2021/07/14 02:04:45;;;;;;;2.60;1.80;;;;;;;;;;4932769;29;20872;-51
2021/07/14 02:07:13;;;;;;;2.95;1.90;;;;;;;;;;4933789;29;20557;-50
2021/07/14 02:09:41;;;;;;;3.05;1.90;;;;;;;;;;4922864;29;20040;-47
2021/07/14 02:12:29;;;;;;;3.17;2.00;;;;;;;;;;4933368;29;20055;-49
2021/07/14 02:15:01;;;;;;;3.80;2.00;;;;;;;;;;4934074;29;20040;-48
2021/07/14 02:17:30;;;;;;;5.47;2.40;;;;;;;;;;4916463;29;20040;-47
2021/07/14 02:20:00;;;;;;;3.15;2.42;;;;;;;;;;4920898;29;20040;-48
2021/07/14 02:22:27;;;;;;;5.30;1.98;;;;;;;;;;4932709;29;20533;-46
2021/07/14 02:24:54;;;;;;;4.85;2.03;;;;;;;;;;4925893;29;20044;-49
2021/07/14 02:27:21;;;;;;;5.88;2.03;;;;;;;;;;4918578;29;20052;-50
2021/07/14 02:29:48;;;;;;;3.00;1.77;;;;;;;;;;4902735;29;20047;-47
2021/07/14 02:32:16;;;;;;;2.97;1.98;;;;;;;;;;4935565;29;20047;-47
2021/07/14 02:34:43;;;;;;;3.50;2.20;;;;;;;;;;4937270;29;20075;-47
2021/07/14 02:37:11;;;;;;;3.42;1.90;;;;;;;;;;4931910;29;20047;-48
2021/07/14 02:39:40;;;;;;;2.47;1.80;;;;;;;;;;4934209;29;20409;-49
2021/07/14 02:42:11;;;;;;;5.10;2.53;;;;;;;;;;4936462;29;20102;-47
2021/07/14 02:44:41;;;;;;;4.68;1.88;;;;;;;;;;4935441;29;20071;-49
2021/07/14 02:47:09;;;;;;;3.15;2.20;;;;;;;;;;4922143;29;20054;-49
2021/07/14 02:49:37;;;;;;;2.70;2.00;;;;;;;;;;4898871;29;20081;-47
2021/07/14 02:52:05;;;;;;;4.63;2.10;;;;;;;;;;4913448;29;20076;-45
2021/07/14 02:54:32;;;;;;;4.00;1.90;;;;;;;;;;4917738;29;20127;-48
2021/07/14 02:57:02;;;;;;;4.07;2.03;;;;;;;;;;4926156;29;20036;-48
2021/07/14 02:59:30;;;;;;;3.97;2.35;;;;;;;;;;4917928;29;20079;-49
2021/07/14 03:01:58;;;;;;;4.13;2.08;;;;;;;;;;4915374;29;20044;-51
2021/07/14 03:04:27;;;;;;;3.33;2.38;;;;;;;;;;4936150;29;20048;-48
2021/07/14 03:06:54;;;;;;;4.47;2.58;;;;;;;;;;4932516;29;20137;-48
2021/07/14 03:09:31;;;;;;;6.75;2.60;;;;;;;;;;4926663;29;20048;-47
2021/07/14 03:11:58;;;;;;;5.88;2.70;;;;;;;;;;4923426;29;20123;-47
2021/07/14 03:14:26;;;;;;;3.53;2.28;;;;;;;;;;4936354;29;20048;-47
2021/07/14 03:16:53;;;;;;;2.90;1.90;;;;;;;;;;4930879;29;20135;-49
2021/07/14 03:19:21;;;;;;;3.47;2.10;;;;;;;;;;4926644;29;20071;-47
2021/07/14 03:21:48;;;;;;;3.22;2.20;;;;;;;;;;4927395;29;20090;-48
2021/07/14 03:24:15;;;;;;;3.15;2.25;;;;;;;;;;4917229;29;20119;-48
2021/07/14 03:26:42;;;;;;;3.08;2.00;;;;;;;;;;4919843;29;20078;-48
2021/07/14 03:29:10;;;;;;;4.03;2.13;;;;;;;;;;4910041;29;20480;-46
2021/07/14 03:31:37;;;;;;;9.50;2.33;;;;;;;;;;4907712;29;20054;-48
2021/07/14 03:34:04;;;;;;;3.45;2.20;;;;;;;;;;4932223;29;20054;-49
2021/07/14 03:36:31;;;;;;;4.05;2.20;;;;;;;;;;4929112;29;20119;-51
2021/07/14 03:38:58;;;;;;;3.58;1.70;;;;;;;;;;4933103;29;20043;-49
2021/07/14 03:41:25;;;;;;;3.83;1.90;;;;;;;;;;4935286;29;20520;-51
2021/07/14 03:43:53;;;;;;;3.95;1.58;;;;;;;;;;4936089;29;20536;-47
2021/07/14 03:46:20;;;;;;;3.53;1.45;;;;;;;;;;4929205;29;20163;-52
2021/07/14 03:48:47;;;;;;;1.75;1.40;;;;;;;;;;4935723;29;20062;-51
2021/07/14 03:51:16;;;;;;;4.38;1.70;;;;;;;;;;4934240;29;20043;-52
2021/07/14 03:53:44;;;;;;;4.00;1.73;;;;;;;;;;4935536;29;20126;-51
2021/07/14 03:56:10;;;;;;;4.60;2.10;;;;;;;;;;4923572;29;20148;-48
2021/07/14 03:58:38;;;;;;;3.00;1.83;;;;;;;;;;4916472;29;20542;-49
2021/07/14 04:01:05;;;;;;;3.30;1.73;;;;;;;;;;4933651;29;20514;-50
2021/07/14 04:03:32;;;;;;;2.70;1.70;;;;;;;;;;4934028;29;20067;-50
2021/07/14 04:06:00;;;;;;;4.00;1.77;;;;;;;;;;4920836;29;20143;-54
2021/07/14 04:08:32;;;;;;;3.70;1.88;;;;;;;;;;4911441;29;20080;-50
2021/07/14 04:10:59;;;;;;;2.22;1.77;;;;;;;;;;4931203;29;20509;-51
2021/07/14 04:13:25;;;;;;;5.88;2.10;;;;;;;;;;4924235;29;20050;-50
2021/07/14 04:15:52;;;;;;;3.47;1.70;;;;;;;;;;4929313;29;20096;-52
2021/07/14 04:18:19;;;;;;;3.72;2.10;;;;;;;;;;4932337;29;20054;-50
2021/07/14 04:20:46;;;;;;;3.60;1.80;;;;;;;;;;4934111;29;20048;-51
2021/07/14 04:23:13;;;;;;;4.75;1.83;;;;;;;;;;4916322;29;20128;-52
2021/07/14 04:25:39;;;;;;;3.97;1.85;;;;;;;;;;4921292;29;20050;-53
2021/07/14 04:28:06;;;;;;;3.30;1.75;;;;;;;;;;4930753;29;20239;-51
2021/07/14 04:30:33;;;;;;;3.60;1.65;;;;;;;;;;4909853;29;20048;-50
2021/07/14 04:33:00;;;;;;;2.38;1.60;;;;;;;;;;4915968;29;20593;-52
2021/07/14 04:35:27;;;;;;;2.03;1.38;;;;;;;;;;4914816;29;20123;-51
2021/07/14 04:37:54;;;;;;;3.42;1.38;;;;;;;;;;4914156;29;20075;-54
2021/07/14 04:40:22;;;;;;;3.20;1.55;;;;;;;;;;4932852;29;20636;-54
2021/07/14 04:42:50;;;;;;;2.63;1.40;;;;;;;;;;4932771;29;20043;-50
2021/07/14 04:45:17;;;;;;;2.17;1.30;;;;;;;;;;4904483;29;20106;-52
2021/07/14 04:47:44;;;;;;;2.00;1.30;;;;;;;;;;4920809;29;20058;-54
2021/07/14 04:50:12;;;;;;;2.83;1.13;;;;;;;;;;4934428;29;20524;-52
2021/07/14 04:52:39;;;;;;;1.83;1.13;;;;;;;;;;4931646;29;20069;-51
2021/07/14 04:55:06;;;;;;;2.28;1.40;;;;;;;;;;4915539;29;20566;-53
2021/07/14 04:57:33;;;;;;;3.00;1.20;;;;;;;;;;4932651;29;20501;-50
2021/07/14 04:59:59;;;;;;;3.67;1.10;;;;;;;;;;4907689;29;20135;-52
2021/07/14 05:02:26;;;;;;;2.22;1.23;;;;;;;;;;4926735;29;20126;-46
2021/07/14 05:04:53;;;;;;;1.75;1.23;;;;;;;;;;4934696;29;20044;-48
2021/07/14 05:07:23;;;;;;;2.83;1.30;;;;;;;;;;4911387;29;20403;-50
2021/07/14 05:09:50;;;;;;;2.47;1.40;;;;;;;;;;4912678;29;20083;-45
2021/07/14 05:12:17;;;;;;;6.13;1.45;;;;;;;;;;4918075;29;20055;-46
2021/07/14 05:14:43;;;;;;;3.70;1.50;;;;;;;;;;4926137;29;20039;-46
2021/07/14 05:17:10;;;;;;;2.30;1.27;;;;;;;;;;4902656;29;20409;-48
2021/07/14 05:19:37;;;;;;;2.58;1.20;;;;;;;;;;4930499;29;20131;-47
2021/07/14 05:22:04;;;;;;;1.77;1.30;;;;;;;;;;4954596;23;20142;-50
2021/07/14 05:24:30;;;;;;;4.03;1.50;;;;;;;;;;4932725;29;20058;-45
2021/07/14 05:26:57;;;;;;;3.38;1.30;;;;;;;;;;4935298;29;20050;-49
2021/07/14 05:29:24;;;;;;;2.35;1.50;;;;;;;;;;4939564;29;20040;-46
2021/07/14 05:31:51;;;;;;;1.70;1.20;;;;;;;;;;4932747;28;20050;-47
2021/07/14 05:34:17;;;;;;;2.90;1.60;;;;;;;;;;4930987;29;20219;-52
2021/07/14 05:36:44;;;;;;;3.17;1.55;;;;;;;;;;4925341;29;20059;-47
2021/07/14 05:39:11;;;;;;;2.55;1.60;;;;;;;;;;4946902;29;20066;-47
2021/07/14 05:41:37;;;;;;;4.57;1.50;;;;;;;;;;4943937;28;20050;-45
2021/07/14 05:44:04;;;;;;;2.05;1.48;;;;;;;;;;4946163;28;20082;-45
2021/07/14 05:46:32;;;;;;;2.13;1.33;;;;;;;;;;4930542;29;20050;-45
2021/07/14 05:49:02;;;;;;;2.05;1.40;;;;;;;;;;4932862;29;20050;-46
2021/07/14 05:51:32;;;;;;;4.25;1.50;;;;;;;;;;4940056;29;20145;-45
2021/07/14 05:54:00;;;;;;;2.78;1.50;;;;;;;;;;4939335;28;20135;-46
2021/07/14 05:56:26;;;;;;;2.30;1.48;;;;;;;;;;4938982;29;20064;-46
2021/07/14 05:58:53;;;;;;;2.47;1.38;;;;;;;;;;4939207;28;20046;-45
2021/07/14 06:01:21;;;;;;;5.00;1.65;;;;;;;;;;4928873;29;20063;-49
2021/07/14 06:03:48;;;;;;;3.25;1.30;;;;;;;;;;4948349;28;20138;-46
2021/07/14 06:06:16;;;;;;;2.30;1.55;;;;;;;;;;4942376;29;20052;-46
2021/07/14 06:08:43;;;;;;;3.20;1.30;;;;;;;;;;4935184;29;20071;-49
2021/07/14 06:11:09;;;;;;;2.40;1.60;;;;;;;;;;4940345;29;20357;-45
2021/07/14 06:13:36;;;;;;;3.03;1.38;;;;;;;;;;4937774;28;20052;-48
2021/07/14 06:16:03;;;;;;;3.70;1.73;;;;;;;;;;4938012;29;20074;-46
2021/07/14 06:18:31;;;;;;;2.63;1.50;;;;;;;;;;4955143;28;20122;-49
2021/07/14 06:20:58;;;;;;;2.22;1.45;;;;;;;;;;4948140;28;20044;-48
2021/07/14 06:23:24;;;;;;;3.28;1.35;;;;;;;;;;4950967;29;20027;-54
2021/07/14 06:25:51;;;;;;;2.58;1.50;;;;;;;;;;4931671;29;20465;-47
2021/07/14 06:28:18;;;;;;;3.13;1.52;;;;;;;;;;4953899;28;20415;-46
2021/07/14 06:30:48;;;;;;;2.90;1.70;;;;;;;;;;4948587;29;20519;-46
2021/07/14 06:33:15;;;;;;;2.67;1.55;;;;;;;;;;4953968;29;20212;-49
2021/07/14 06:35:42;;;;;;;4.70;1.55;;;;;;;;;;4955192;28;20067;-49
2021/07/14 06:38:09;;;;;;;3.85;1.65;;;;;;;;;;4953216;28;20067;-47
2021/07/14 06:40:37;;;;;;;3.45;1.83;;;;;;;;;;4947546;29;20043;-47
2021/07/14 06:43:07;;;;;;;3.78;1.80;;;;;;;;;;4949755;28;20042;-49
2021/07/14 06:45:36;;;;;;;4.18;1.90;;;;;;;;;;4954956;28;20043;-46
2021/07/14 06:48:02;;;;;;;3.88;1.40;;;;;;;;;;4929839;29;20059;-47
2021/07/14 06:50:29;;;;;;;4.82;1.90;;;;;;;;;;4885917;29;20443;-44
2021/07/14 06:52:56;;;;;;;3.45;1.80;;;;;;;;;;4954157;29;20053;-46
2021/07/14 06:55:23;;;;;;;2.90;1.75;;;;;;;;;;4955213;28;20039;-45
2021/07/14 06:57:49;;;;;;;3.10;1.90;;;;;;;;;;4939644;28;20072;-44
2021/07/14 07:00:16;;;;;;;3.13;1.73;;;;;;;;;;4941979;29;20053;-45
2021/07/14 07:02:44;;;;;;;4.90;1.83;;;;;;;;;;4955054;28;20039;-44
2021/07/14 07:05:11;;;;;;;4.55;2.20;;;;;;;;;;4947113;28;20044;-51
2021/07/14 07:07:37;;;;;;;3.30;1.80;;;;;;;;;;4941354;29;20102;-45
2021/07/14 07:10:05;;;;;;;3.50;1.83;;;;;;;;;;4921168;29;20550;-44
2021/07/14 07:12:32;;;;;;;5.20;1.65;;;;;;;;;;4950287;29;20118;-46
2021/07/14 07:14:58;;;;;;;4.10;2.20;;;;;;;;;;4954820;28;20062;-47
2021/07/14 07:17:25;;;;;;;3.95;1.85;;;;;;;;;;4943912;28;20127;-50
2021/07/14 07:19:52;;;;;;;5.38;1.88;;;;;;;;;;4932495;29;20521;-44
2021/07/14 07:22:19;;;;;;;3.70;1.90;;;;;;;;;;4953011;29;20062;-50
2021/07/14 07:24:46;;;;;;;3.28;1.90;;;;;;;;;;4938419;28;20042;-47
2021/07/14 07:27:12;;;;;;;4.82;2.38;;;;;;;;;;4943982;29;20552;-46
2021/07/14 07:29:39;;;;;;;3.92;2.05;;;;;;;;;;4948056;28;20050;-46
2021/07/14 07:32:07;;;;;;;3.72;2.00;;;;;;;;;;4950427;28;20512;-52
2021/07/14 07:34:33;;;;;;;2.90;1.90;;;;;;;;;;4941240;29;20148;-46
2021/07/14 07:37:03;;;;;;;6.05;2.03;;;;;;;;;;4934597;28;20052;-46
2021/07/14 07:39:30;;;;;;;2.90;1.85;;;;;;;;;;4953019;29;20047;-47
2021/07/14 07:42:01;;;;;;;3.30;1.83;;;;;;;;;;4953974;28;20412;-46
2021/07/14 07:44:28;;;;;;;3.78;1.90;;;;;;;;;;4950727;28;20035;-50
2021/07/14 07:46:55;;;;;;;4.60;1.92;;;;;;;;;;4931737;29;20097;-49
2021/07/14 07:49:23;;;;;;;4.43;2.08;;;;;;;;;;4934326;29;20047;-47
2021/07/14 07:51:51;;;;;;;4.45;1.98;;;;;;;;;;4953646;28;20049;-47
2021/07/14 07:54:17;;;;;;;3.55;2.17;;;;;;;;;;4947126;28;20486;-44
2021/07/14 07:56:44;;;;;;;3.50;2.05;;;;;;;;;;4931256;29;20036;-48
2021/07/14 07:59:11;;;;;;;3.88;2.13;;;;;;;;;;4927861;29;20044;-46
2021/07/14 08:01:38;;;;;;;6.90;2.25;;;;;;;;;;4929045;29;20067;-44
2021/07/14 08:04:06;;;;;;;6.25;2.17;;;;;;;;;;4930740;29;20435;-46
2021/07/14 08:06:32;;;;;;;4.43;2.10;;;;;;;;;;4926927;29;20044;-44
2021/07/14 08:09:00;;;;;;;2.90;1.80;;;;;;;;;;4919376;29;20036;-45
2021/07/14 08:11:27;;;;;;;4.82;2.00;;;;;;;;;;4927423;29;20055;-46
2021/07/14 08:13:56;;;;;;;2.95;1.90;;;;;;;;;;4919506;29;20047;-43
2021/07/14 08:16:23;;;;;;;3.50;2.00;;;;;;;;;;4926635;29;20063;-48
2021/07/14 08:18:50;;;;;;;3.00;1.90;;;;;;;;;;4931840;29;20384;-45
2021/07/14 08:21:18;;;;;;;4.53;2.15;;;;;;;;;;4932798;29;20070;-42
2021/07/14 08:23:47;;;;;;;2.92;1.80;;;;;;;;;;4925423;29;20052;-45
2021/07/14 08:26:14;;;;;;;9.25;2.25;;;;;;;;;;4934056;29;20126;-47
2021/07/14 08:28:42;;;;;;;3.65;2.00;;;;;;;;;;4926143;29;20181;-47
2021/07/14 08:31:09;;;;;;;3.92;2.30;;;;;;;;;;4932634;29;20418;-44
2021/07/14 08:33:36;;;;;;;5.05;2.55;;;;;;;;;;4932134;29;20050;-48
2021/07/14 08:36:03;;;;;;;3.15;2.20;;;;;;;;;;4924486;29;20044;-45
2021/07/14 08:38:30;;;;;;;4.28;2.00;;;;;;;;;;4919173;29;20036;-43
2021/07/14 08:40:58;;;;;;;4.90;2.65;;;;;;;;;;4918151;29;20044;-48
2021/07/14 08:43:29;;;;;;;3.75;2.33;;;;;;;;;;4920684;29;20115;-48
2021/07/14 08:45:56;;;;;;;6.07;2.17;;;;;;;;;;4927700;29;20450;-45
2021/07/14 08:48:23;;;;;;;4.18;2.63;;;;;;;;;;4927661;29;20058;-48
2021/07/14 08:50:51;;;;;;;3.92;2.20;;;;;;;;;;4923423;29;20067;-43
2021/07/14 08:53:20;;;;;;;4.22;2.10;;;;;;;;;;4924808;29;20043;-43
2021/07/14 08:55:48;;;;;;;3.63;2.35;;;;;;;;;;4932383;29;20413;-44
2021/07/14 08:58:16;;;;;;;4.10;2.40;;;;;;;;;;4928128;29;20446;-43
2021/07/14 09:00:44;;;;;;;3.58;2.33;;;;;;;;;;4927601;29;20040;-48
2021/07/14 09:03:11;;;;;;;5.90;3.25;;;;;;;;;;4930117;29;20059;-50
2021/07/14 09:05:38;;;;;;;3.72;2.45;;;;;;;;;;4928639;29;20155;-46
2021/07/14 09:08:05;;;;;;;4.55;2.95;;;;;;;;;;4927026;29;20044;-49
2021/07/14 09:10:31;;;;;;;3.00;2.05;;;;;;;;;;4927550;29;20040;-45
2021/07/14 09:12:59;;;;;;;3.53;2.10;;;;;;;;;;4928046;29;20140;-46
2021/07/14 09:15:27;;;;;;;5.95;2.38;;;;;;;;;;4918416;29;20059;-46
2021/07/14 09:17:56;;;;;;;4.25;2.42;;;;;;;;;;4924213;29;20044;-45
2021/07/14 09:20:25;;;;;;;4.95;2.00;;;;;;;;;;4934387;29;20047;-45
2021/07/14 09:23:01;;;;;;;6.53;2.80;;;;;;;;;;4929915;28;20123;-44
2021/07/14 09:25:28;;;;;;;3.80;2.45;;;;;;;;;;4926786;29;20472;-45
2021/07/14 09:27:59;;;;;;;2.58;1.92;;;;;;;;;;4930154;29;20134;-48
2021/07/14 09:30:27;;;;;;;2.97;2.13;;;;;;;;;;4926108;29;20126;-46
2021/07/14 09:32:55;;;;;;;3.92;2.25;;;;;;;;;;4929967;29;20051;-46
2021/07/14 09:35:23;;;;;;;4.07;2.15;;;;;;;;;;4936169;29;20043;-47
2021/07/14 09:37:50;;;;;;;4.22;2.20;;;;;;;;;;4926884;29;20071;-47
2021/07/14 09:40:17;;;;;;;3.15;1.90;;;;;;;;;;4929817;29;20429;-46
2021/07/14 09:42:51;;;;;;;3.85;2.00;;;;;;;;;;4918421;29;20375;-48
2021/07/14 09:45:34;;;;;;;3.28;2.33;;;;;;;;;;4932266;29;20560;-46
2021/07/14 09:48:02;;;;;;;3.38;2.13;;;;;;;;;;4932693;29;20160;-48
2021/07/14 09:50:36;;;;;;;3.75;1.98;;;;;;;;;;4926625;29;20044;-46
2021/07/14 09:53:04;;;;;;;5.57;1.90;;;;;;;;;;4929199;29;20051;-47
2021/07/14 09:55:31;;;;;;;4.60;2.05;;;;;;;;;;4919502;29;20122;-45
2021/07/14 09:58:11;;;;;;;3.60;2.10;;;;;;;;;;4920547;29;20059;-45
2021/07/14 10:00:41;;;;;;;3.65;2.00;;;;;;;;;;4920168;29;20059;-46
2021/07/14 10:03:09;;;;;;;2.83;1.80;;;;;;;;;;4928362;29;20068;-46
2021/07/14 10:05:36;;;;;;;2.33;1.63;;;;;;;;;;4921679;29;20135;-45
2021/07/14 10:08:21;;;;;;;2.80;1.83;;;;;;;;;;4929757;29;20079;-44
2021/07/14 10:10:49;;;;;;;3.95;1.95;;;;;;;;;;4927397;29;20139;-46
2021/07/14 10:13:17;;;;;;;3.13;1.85;;;;;;;;;;4932282;29;20047;-45
2021/07/14 10:15:44;;;;;;;2.70;1.80;;;;;;;;;;4937947;29;20486;-45
2021/07/14 10:18:12;;;;;;;4.00;1.90;;;;;;;;;;4923829;29;20036;-45
2021/07/14 10:20:43;;;;;;;2.15;1.60;;;;;;;;;;4937995;29;20405;-45
2021/07/14 10:23:15;;;;;;;2.70;1.50;;;;;;;;;;4921450;29;20513;-45
2021/07/14 10:25:42;;;;;;;2.35;1.70;;;;;;;;;;4936915;29;20048;-44
2021/07/14 10:28:12;;;;;;;2.55;1.70;;;;;;;;;;4923011;29;20166;-45
2021/07/14 10:30:40;;;;;;;3.80;1.77;;;;;;;;;;4920638;29;20439;-45
2021/07/14 10:33:08;;;;;;;2.10;1.38;;;;;;;;;;4925853;29;20107;-44
2021/07/14 10:35:37;;;;;;;3.78;1.75;;;;;;;;;;4928549;29;20047;-46
2021/07/14 10:38:15;;;;;;;2.35;1.52;;;;;;;;;;4920553;29;20434;-43
2021/07/14 10:40:44;;;;;;;3.05;1.45;;;;;;;;;;4919252;29;20036;-46
2021/07/14 10:43:15;;;;;;;3.33;1.70;;;;;;;;;;4931408;29;20046;-47
2021/07/14 10:45:44;;;;;;;3.80;2.05;;;;;;;;;;4928104;29;20070;-44
2021/07/14 10:48:13;;;;;;;4.05;1.60;;;;;;;;;;4925814;29;20409;-46
2021/07/14 10:50:40;;;;;;;4.38;1.42;;;;;;;;;;4936514;29;20448;-46
2021/07/14 10:53:09;;;;;;;3.53;1.80;;;;;;;;;;4922572;29;20044;-45
2021/07/14 10:55:37;;;;;;;2.80;1.80;;;;;;;;;;4924346;29;20079;-47
2021/07/14 10:58:04;;;;;;;4.18;1.90;;;;;;;;;;4930869;29;20175;-45
2021/07/14 11:00:39;;;;;;;2.63;1.58;;;;;;;;;;4923469;29;20454;-46
2021/07/14 11:03:06;;;;;;;2.78;1.55;;;;;;;;;;4933430;29;20071;-44
2021/07/14 11:05:42;;;;;;;3.67;1.80;;;;;;;;;;4935881;29;20051;-45
2021/07/14 11:08:09;;;;;;;2.53;1.80;;;;;;;;;;4934297;29;20465;-45
2021/07/14 11:10:37;;;;;;;3.17;1.67;;;;;;;;;;4917625;29;20131;-45
2021/07/14 11:13:22;;;;;;;4.82;2.00;;;;;;;;;;4935407;29;20078;-47
2021/07/14 11:15:49;;;;;;;2.22;1.60;;;;;;;;;;4920757;29;20056;-44
2021/07/14 11:18:28;;;;;;;3.30;1.45;;;;;;;;;;4935697;29;20075;-44
2021/07/14 11:20:58;;;;;;;2.78;1.75;;;;;;;;;;4931587;29;20055;-46
2021/07/14 11:23:28;;;;;;;3.35;1.52;;;;;;;;;;4934264;29;20541;-45
2021/07/14 11:25:56;;;;;;;5.13;1.75;;;;;;;;;;4935183;29;20135;-47
2021/07/14 11:28:25;;;;;;;2.65;1.70;;;;;;;;;;4927777;29;20123;-44
2021/07/14 11:30:56;;;;;;;3.13;1.70;;;;;;;;;;4921329;29;20438;-49
2021/07/14 11:33:27;;;;;;;2.58;1.77;;;;;;;;;;4933078;29;20047;-47
2021/07/14 11:36:01;;;;;;;2.33;1.67;;;;;;;;;;4934344;29;20139;-45
2021/07/14 11:38:29;;;;;;;2.25;1.65;;;;;;;;;;4925419;29;20046;-44
2021/07/14 11:40:57;;;;;;;2.47;1.60;;;;;;;;;;4917503;29;20048;-46
2021/07/14 11:43:26;;;;;;;4.00;1.88;;;;;;;;;;4928165;29;20056;-45
2021/07/14 11:45:54;;;;;;;5.35;1.70;;;;;;;;;;4931867;29;20039;-44
2021/07/14 11:48:20;;;;;;;3.90;1.80;;;;;;;;;;4929982;29;20126;-48
2021/07/14 11:50:54;;;;;;;2.92;1.80;;;;;;;;;;4935191;29;20047;-46
2021/07/14 11:53:27;;;;;;;2.67;1.80;;;;;;;;;;4935346;29;20131;-44
2021/07/14 11:56:08;;;;;;;5.07;2.25;;;;;;;;;;4933093;29;20046;-44
2021/07/14 11:58:41;;;;;;;2.97;1.88;;;;;;;;;;4925271;29;20062;-49
2021/07/14 12:01:10;;;;;;;4.10;2.70;;;;;;;;;;4934016;29;20035;-45
2021/07/14 12:03:37;;;;;;;2.60;1.95;;;;;;;;;;4916344;29;20068;-45
2021/07/14 12:06:39;;;;;;;3.75;1.90;;;;;;;;;;4921631;29;20107;-44
2021/07/14 12:09:11;;;;;;;3.00;2.03;;;;;;;;;;4887727;29;20045;-46
2021/07/14 12:11:49;;;;;;;4.00;2.17;;;;;;;;;;4917663;29;20052;-46
2021/07/14 12:14:21;;;;;;;3.28;1.85;;;;;;;;;;4925730;29;20425;-45
2021/07/14 12:16:49;;;;;;;3.65;2.28;;;;;;;;;;4925117;29;20074;-47
2021/07/14 12:19:20;;;;;;;3.15;2.40;;;;;;;;;;4934707;29;20079;-46
2021/07/14 12:21:46;;;;;;;4.43;2.45;;;;;;;;;;4925634;29;20036;-44
2021/07/14 12:24:31;;;;;;;2.63;2.22;;;;;;;;;;4920709;29;20046;-45
2021/07/14 12:26:59;;;;;;;3.28;2.40;;;;;;;;;;4925007;29;20131;-44
2021/07/14 12:29:26;;;;;;;3.05;2.58;;;;;;;;;;4930851;29;20043;-44
2021/07/14 12:31:53;;;;;;;3.58;2.40;;;;;;;;;;4917680;29;20470;-46
2021/07/14 12:34:22;;;;;;;3.42;2.60;;;;;;;;;;4915454;29;20140;-43
2021/07/14 12:36:49;;;;;;;2.65;2.10;;;;;;;;;;4927266;29;20047;-46
2021/07/14 12:39:20;;;;;;;3.35;2.30;;;;;;;;;;4922617;29;20379;-44
2021/07/14 12:41:49;;;;;;;3.30;2.40;;;;;;;;;;4934325;29;20537;-43
2021/07/14 12:44:16;;;;;;;3.92;2.20;;;;;;;;;;4929532;29;20044;-46
2021/07/14 12:46:43;;;;;;;2.92;2.22;;;;;;;;;;4927339;29;20126;-43
2021/07/14 12:49:11;;;;;;;3.15;1.90;;;;;;;;;;4926581;29;20126;-47
2021/07/14 12:51:38;;;;;;;4.30;2.50;;;;;;;;;;4914559;29;20446;-44
2021/07/14 12:54:05;;;;;;;3.28;2.05;;;;;;;;;;4923680;29;20453;-45
2021/07/14 12:56:32;;;;;;;5.30;2.90;;;;;;;;;;4913225;29;20047;-44
2021/07/14 12:59:04;;;;;;;4.20;2.40;;;;;;;;;;4917553;29;20038;-45
2021/07/14 13:01:31;;;;;;;7.47;2.35;;;;;;;;;;4915042;29;20486;-46
2021/07/14 13:03:59;;;;;;;3.95;2.65;;;;;;;;;;4914929;29;20418;-46
2021/07/14 13:06:26;;;;;;;3.58;2.35;;;;;;;;;;4917932;29;20537;-49
2021/07/14 13:08:53;;;;;;;7.25;2.60;;;;;;;;;;4929728;29;20043;-47
2021/07/14 13:11:20;;;;;;;3.83;2.40;;;;;;;;;;4923957;29;20059;-49
2021/07/14 13:13:48;;;;;;;5.53;2.60;;;;;;;;;;4926251;29;20504;-44
2021/07/14 13:16:25;;;;;;;3.53;2.67;;;;;;;;;;4926581;29;20044;-46
2021/07/14 13:18:54;;;;;;;5.18;2.63;;;;;;;;;;4918241;29;20381;-47
2021/07/14 13:21:24;;;;;;;3.97;2.88;;;;;;;;;;4915169;29;20044;-47
2021/07/14 13:24:01;;;;;;;2.72;2.30;;;;;;;;;;4916076;29;20512;-45
2021/07/14 13:26:28;;;;;;;5.13;2.40;;;;;;;;;;4923700;29;20151;-45
2021/07/14 13:28:55;;;;;;;4.60;2.47;;;;;;;;;;4925904;29;20510;-46
2021/07/14 13:31:33;;;;;;;6.60;2.47;;;;;;;;;;4931406;29;20469;-44
2021/07/14 13:34:06;;;;;;;4.57;2.40;;;;;;;;;;4927408;29;20050;-47
2021/07/14 13:36:33;;;;;;;;;;;;;;;;;;4933669;29;20084;-47
2021/07/14 13:39:00;;;;;;;4.13;2.85;;;;;;;;;;4927063;29;19982;-48
2021/07/14 13:41:36;;;;;;;5.18;2.90;;;;;;;;;;4925010;29;20058;-49
2021/07/14 13:44:04;;;;;;;4.50;2.33;;;;;;;;;;4924656;29;20063;-48
2021/07/14 13:46:32;;;;;;;3.42;2.85;;;;;;;;;;4924786;29;20136;-45
2021/07/14 13:49:05;;;;;;;3.58;2.28;;;;;;;;;;4924505;29;20131;-45
2021/07/14 13:51:42;;;;;;;5.88;2.58;;;;;;;;;;4930380;29;20048;-51
2021/07/14 13:54:18;;;;;;;2.90;2.25;;;;;;;;;;4929182;29;20055;-47
2021/07/14 13:56:48;;;;;;;3.58;2.85;;;;;;;;;;4927855;29;20070;-45
2021/07/14 13:59:29;;;;;;;4.80;2.50;;;;;;;;;;4922551;29;20123;-48
2021/07/14 14:02:16;;;;;;;3.42;2.20;;;;;;;;;;4912874;29;20550;-44
2021/07/14 14:04:43;;;;;;;5.03;2.28;;;;;;;;;;4914933;29;20036;-42
2021/07/14 14:07:16;;;;;;;3.95;2.80;;;;;;;;;;4919131;29;20185;-45
2021/07/14 14:09:50;;;;;;;6.10;2.30;;;;;;;;;;4921821;29;20098;-43
2021/07/14 14:12:19;;;;;;;4.32;2.70;;;;;;;;;;4929827;29;20474;-45
2021/07/14 14:14:46;;;;;;;7.47;2.72;;;;;;;;;;4932097;29;20047;-44
2021/07/14 14:17:13;;;;;;;5.13;2.50;;;;;;;;;;4924706;29;20169;-43
2021/07/14 14:19:40;;;;;;;3.58;2.67;;;;;;;;;;4924817;29;20037;-45
2021/07/14 14:22:07;;;;;;;3.80;2.97;;;;;;;;;;4923343;29;20056;-42
2021/07/14 14:24:34;;;;;;;5.78;2.90;;;;;;;;;;4925278;29;20371;-42
2021/07/14 14:27:04;;;;;;;4.78;3.03;;;;;;;;;;4920734;29;20127;-41
2021/07/14 14:29:33;;;;;;;4.22;2.63;;;;;;;;;;4918195;29;20072;-42
2021/07/14 14:32:00;;;;;;;5.90;2.70;;;;;;;;;;4919969;29;20597;-42
2021/07/14 14:34:27;;;;;;;4.22;2.53;;;;;;;;;;4932952;29;20043;-45
2021/07/14 14:36:55;;;;;;;4.43;2.50;;;;;;;;;;4930452;29;20123;-43
2021/07/14 14:39:22;;;;;;;3.40;2.75;;;;;;;;;;4909256;29;20052;-44
2021/07/14 14:41:50;;;;;;;4.35;2.38;;;;;;;;;;4931293;29;20054;-48
2021/07/14 14:44:17;;;;;;;3.28;2.40;;;;;;;;;;4918596;29;20040;-42
2021/07/14 14:46:49;;;;;;;4.03;2.88;;;;;;;;;;4921775;29;20581;-43
2021/07/14 14:49:16;;;;;;;4.78;2.20;;;;;;;;;;4920609;29;20040;-43
2021/07/14 14:51:43;;;;;;;6.13;2.72;;;;;;;;;;4933067;29;20078;-43
2021/07/14 14:54:10;;;;;;;5.85;2.40;;;;;;;;;;4929147;29;20047;-49
2021/07/14 14:56:37;;;;;;;4.10;2.55;;;;;;;;;;4926554;29;20059;-42
2021/07/14 14:59:03;;;;;;;4.03;2.50;;;;;;;;;;4930461;29;20055;-46
2021/07/14 15:01:30;;;;;;;4.68;2.30;;;;;;;;;;4932229;29;20044;-47